Time;durP1;ratioP1;P1;durP2;ratioP2;P2;SDS_P1;SDS_P2;PMS_P1;PMS_P2;Temp;Humidity;BMP_temperature;BMP_pressure;BME280_temperature;BME280_humidity;BME280_pressure;Samples;Min_cycle;Max_cycle;Signal;HPM_P1;HPM_P2
2022/11/17 00:01:54;;;;;;;7.80;5.97;;;4.50;99.90;;;;;;5049099;28;20500;-72
2022/11/17 00:04:19;;;;;;;9.20;7.17;;;4.50;99.90;;;;;;5047663;28;20192;-71
2022/11/17 00:06:45;;;;;;;8.93;6.00;;;4.50;99.90;;;;;;5033556;28;20246;-72
2022/11/17 00:09:16;;;;;;;7.93;7.10;;;4.40;99.90;;;;;;5033689;28;20175;-73
2022/11/17 00:14:32;;;;;;;6.53;5.50;;;4.40;99.90;;;;;;5012442;28;20450;-72
2022/11/17 00:17:16;;;;;;;9.23;8.33;;;4.40;99.90;;;;;;5012069;28;20399;-71
2022/11/17 00:22:28;;;;;;;12.77;7.73;;;4.40;99.90;;;;;;5011945;28;20407;-74
2022/11/17 00:24:54;;;;;;;8.10;6.50;;;4.30;99.90;;;;;;5011755;28;20459;-72
2022/11/17 00:27:19;;;;;;;7.43;6.27;;;4.30;99.90;;;;;;5012521;28;20413;-72
2022/11/17 00:29:45;;;;;;;7.60;6.03;;;4.30;99.90;;;;;;5012409;28;20170;-72
2022/11/17 00:35:00;;;;;;;8.67;7.20;;;4.20;99.90;;;;;;5026751;28;20211;-73
2022/11/17 00:37:27;;;;;;;7.93;6.60;;;4.30;99.90;;;;;;5033202;28;20402;-74
2022/11/17 00:39:53;;;;;;;11.03;8.17;;;4.30;99.90;;;;;;5025577;28;20592;-73
2022/11/17 00:42:21;;;;;;;9.57;7.50;;;4.20;99.90;;;;;;5012228;28;20427;-73
2022/11/17 00:44:47;;;;;;;8.33;7.43;;;4.20;99.90;;;;;;4995510;28;20185;-72
2022/11/17 00:47:12;;;;;;;9.93;7.87;;;4.20;99.90;;;;;;5012842;28;20446;-72
2022/11/17 00:49:38;;;;;;;7.47;6.30;;;4.10;99.90;;;;;;5011652;28;20187;-72
2022/11/17 00:52:04;;;;;;;9.03;7.70;;;4.10;99.90;;;;;;5011255;28;20178;-73
2022/11/17 00:54:29;;;;;;;6.97;6.27;;;4.20;99.90;;;;;;5013111;28;20188;-72
2022/11/17 00:56:55;;;;;;;7.77;6.97;;;4.10;99.90;;;;;;5013072;28;20809;-72
2022/11/17 00:59:21;;;;;;;7.90;6.70;;;4.10;99.90;;;;;;5013098;28;20169;-72
2022/11/17 01:01:47;;;;;;;7.17;6.43;;;4.10;99.90;;;;;;5013163;28;20614;-73
2022/11/17 01:04:13;;;;;;;9.27;7.60;;;4.00;99.90;;;;;;5010951;28;20217;-73
2022/11/17 01:06:45;;;;;;;12.17;7.57;;;4.00;99.90;;;;;;5010985;28;20443;-72
2022/11/17 01:09:22;;;;;;;6.20;5.23;;;4.00;99.90;;;;;;5012150;28;20412;-73
2022/11/17 01:11:50;;;;;;;7.23;6.47;;;4.10;99.90;;;;;;5012483;28;20422;-72
2022/11/17 01:14:19;;;;;;;7.03;6.13;;;4.00;99.90;;;;;;5031303;28;21030;-73
2022/11/17 01:16:45;;;;;;;8.77;6.93;;;4.00;99.90;;;;;;5032263;28;20398;-72
2022/11/17 01:19:13;;;;;;;7.30;6.40;;;4.00;99.90;;;;;;5032396;28;20410;-73
2022/11/17 01:21:38;;;;;;;10.40;6.97;;;4.10;99.90;;;;;;5032779;28;20419;-72
2022/11/17 01:24:04;;;;;;;7.73;6.93;;;4.00;99.90;;;;;;5016784;28;20482;-73
2022/11/17 01:26:33;;;;;;;6.90;6.20;;;4.00;99.90;;;;;;5023878;28;20198;-72
2022/11/17 01:29:00;;;;;;;9.80;6.27;;;4.00;99.90;;;;;;5031523;28;20233;-72
2022/11/17 01:31:31;;;;;;;6.90;5.93;;;4.00;99.90;;;;;;5032195;28;20415;-72
2022/11/17 01:33:57;;;;;;;9.73;6.93;;;4.00;99.90;;;;;;5032028;28;21004;-72
2022/11/17 01:36:24;;;;;;;7.73;6.20;;;4.00;99.90;;;;;;5032101;28;20438;-73
2022/11/17 01:38:50;;;;;;;7.97;6.93;;;4.00;99.90;;;;;;5032106;28;20168;-73
2022/11/17 01:41:19;;;;;;;6.77;5.70;;;4.00;99.90;;;;;;5032018;28;20406;-72
2022/11/17 01:43:51;;;;;;;8.87;6.60;;;4.00;99.90;;;;;;5016482;28;20200;-72
2022/11/17 01:46:34;;;;;;;8.53;6.83;;;4.00;99.90;;;;;;5011377;28;20424;-72
2022/11/17 01:49:10;;;;;;;10.30;6.77;;;4.00;99.90;;;;;;5011215;28;20410;-72
2022/11/17 01:51:40;;;;;;;9.17;7.10;;;4.00;99.90;;;;;;5050074;28;20476;-72
2022/11/17 01:54:09;;;;;;;9.33;6.40;;;3.90;99.90;;;;;;5019953;28;20956;-72
2022/11/17 01:56:38;;;;;;;8.67;7.20;;;3.90;99.90;;;;;;5011150;28;21088;-73
2022/11/17 01:59:15;;;;;;;8.67;6.67;;;4.00;99.90;;;;;;5010533;28;20419;-73
2022/11/17 02:01:54;;;;;;;8.90;7.00;;;4.00;99.90;;;;;;5014439;28;20422;-71
2022/11/17 02:04:34;;;;;;;7.67;6.47;;;3.90;99.90;;;;;;5014505;28;20422;-71
2022/11/17 02:07:07;;;;;;;7.33;6.53;;;3.90;99.90;;;;;;5013015;28;20415;-73
2022/11/17 02:09:36;;;;;;;8.70;6.20;;;3.90;99.90;;;;;;5013555;28;20414;-74
2022/11/17 02:12:03;;;;;;;7.13;5.77;;;3.90;99.90;;;;;;5010480;28;20439;-72
2022/11/17 02:14:29;;;;;;;8.40;6.67;;;3.90;99.90;;;;;;5010164;28;20788;-71
2022/11/17 02:16:55;;;;;;;7.07;6.40;;;3.90;99.90;;;;;;5011716;28;20435;-72
2022/11/17 02:19:24;;;;;;;7.80;6.90;;;3.90;99.90;;;;;;5011920;28;20454;-72
2022/11/17 02:22:14;;;;;;;6.37;5.77;;;3.90;99.90;;;;;;5011887;28;20503;-73
2022/11/17 02:25:01;;;;;;;8.60;5.77;;;3.90;99.90;;;;;;5011542;28;20446;-72
2022/11/17 02:27:41;;;;;;;8.67;6.23;;;3.90;99.90;;;;;;5008636;28;20973;-72
2022/11/17 02:30:15;;;;;;;8.93;6.40;;;3.90;99.90;;;;;;5031211;28;20496;-72
2022/11/17 02:32:59;;;;;;;7.67;6.47;;;3.90;99.90;;;;;;5031062;28;20461;-72
2022/11/17 02:35:36;;;;;;;8.90;7.53;;;3.90;99.90;;;;;;5030586;28;20975;-73
2022/11/17 02:38:20;;;;;;;10.50;7.30;;;3.90;99.90;;;;;;5013746;28;21021;-72
2022/11/17 02:40:52;;;;;;;8.17;7.00;;;3.80;99.90;;;;;;5035354;28;20859;-72
2022/11/17 02:46:21;;;;;;;9.03;7.33;;;3.80;99.90;;;;;;4989353;28;20426;-73
2022/11/17 02:49:04;;;;;;;9.17;7.13;;;3.80;99.90;;;;;;5031689;28;20412;-72
2022/11/17 02:51:31;;;;;;;8.03;7.23;;;3.80;99.90;;;;;;5015323;28;20414;-73
2022/11/17 02:53:58;;;;;;;6.33;5.67;;;3.80;99.90;;;;;;5018362;28;20482;-72
2022/11/17 02:56:25;;;;;;;7.73;6.63;;;3.80;99.90;;;;;;5034859;28;20505;-73
2022/11/17 02:58:55;;;;;;;8.17;6.37;;;3.80;99.90;;;;;;5035822;28;20414;-73
2022/11/17 03:01:42;;;;;;;8.53;7.03;;;3.80;99.90;;;;;;5036179;28;20403;-74
2022/11/17 03:04:27;;;;;;;7.97;5.90;;;3.80;99.90;;;;;;5035556;28;20476;-72
2022/11/17 03:07:13;;;;;;;7.57;5.90;;;3.80;99.90;;;;;;5017742;28;20422;-71
2022/11/17 03:09:48;;;;;;;10.60;7.30;;;3.80;99.90;;;;;;5016166;28;20525;-72
2022/11/17 03:12:42;;;;;;;7.10;5.80;;;3.80;99.90;;;;;;5019442;28;20425;-72
2022/11/17 03:15:28;;;;;;;9.30;6.60;;;3.80;99.90;;;;;;5037337;28;20999;-72
2022/11/17 03:18:07;;;;;;;11.03;8.20;;;3.80;99.90;;;;;;5037207;28;20475;-72
2022/11/17 03:21:22;;;;;;;9.00;7.27;;;3.80;99.90;;;;;;5034540;28;20414;-73
2022/11/17 03:24:06;;;;;;;8.73;6.77;;;3.80;99.90;;;;;;4953506;28;20532;-73
2022/11/17 03:26:42;;;;;;;8.87;7.40;;;3.80;99.90;;;;;;4949382;28;20433;-73
2022/11/17 03:29:12;;;;;;;7.23;6.30;;;3.80;99.90;;;;;;5004957;28;20468;-73
2022/11/17 03:31:40;;;;;;;12.57;6.90;;;3.80;99.90;;;;;;5014618;28;20437;-73
2022/11/17 03:34:10;;;;;;;10.30;7.50;;;3.80;99.90;;;;;;5034022;28;21158;-73
2022/11/17 03:36:38;;;;;;;9.20;7.10;;;3.80;99.90;;;;;;5033918;28;20427;-72
2022/11/17 03:39:29;;;;;;;8.33;5.80;;;3.80;99.90;;;;;;5034033;28;20422;-72
2022/11/17 03:42:01;;;;;;;9.90;6.80;;;3.70;99.90;;;;;;5030752;28;20434;-72
2022/11/17 03:44:31;;;;;;;9.77;7.13;;;3.70;99.90;;;;;;5031508;28;20553;-72
2022/11/17 03:47:01;;;;;;;9.87;7.47;;;3.70;99.90;;;;;;5033548;28;20777;-71
2022/11/17 03:49:45;;;;;;;8.37;6.27;;;3.80;99.90;;;;;;5014087;28;20427;-71
2022/11/17 03:52:11;;;;;;;7.93;6.53;;;3.80;99.90;;;;;;5013472;28;20756;-72
2022/11/17 03:54:37;;;;;;;8.23;6.73;;;3.80;99.90;;;;;;5029179;28;20438;-73
2022/11/17 03:57:18;;;;;;;10.97;7.93;;;3.80;99.90;;;;;;5015941;28;20175;-72
2022/11/17 04:00:08;;;;;;;15.63;7.73;;;3.80;99.90;;;;;;5033851;28;20963;-72
2022/11/17 04:02:34;;;;;;;8.40;6.73;;;3.80;99.90;;;;;;5014187;28;20430;-72
2022/11/17 04:05:06;;;;;;;9.73;7.17;;;3.80;99.90;;;;;;5008520;28;20463;-72
2022/11/17 04:07:42;;;;;;;7.27;6.57;;;3.80;99.90;;;;;;5031281;28;20514;-72
2022/11/17 04:10:10;;;;;;;8.83;6.50;;;3.80;99.90;;;;;;5045058;28;20426;-72
2022/11/17 04:18:05;;;;;;;8.93;7.43;;;3.80;99.90;;;;;;5033331;28;20950;-72
2022/11/17 04:20:34;;;;;;;7.50;6.70;;;3.90;99.90;;;;;;5029300;28;20434;-72
2022/11/17 04:23:13;;;;;;;12.83;8.23;;;3.90;99.90;;;;;;5014299;28;20430;-72
2022/11/17 04:28:46;;;;;;;10.80;8.03;;;3.90;99.90;;;;;;5033915;28;20412;-72
2022/11/17 04:31:21;;;;;;;8.13;6.73;;;3.90;99.90;;;;;;5034048;28;20490;-71
2022/11/17 04:33:54;;;;;;;10.40;7.30;;;3.90;99.90;;;;;;5033331;28;20453;-73
2022/11/17 04:36:26;;;;;;;7.23;6.13;;;3.90;99.90;;;;;;5033376;28;20405;-72
2022/11/17 04:38:54;;;;;;;9.27;6.73;;;3.80;99.90;;;;;;5005576;28;20462;-72
2022/11/17 04:44:07;;;;;;;12.53;7.90;;;3.80;99.90;;;;;;5021514;28;20518;-72
2022/11/17 04:46:34;;;;;;;8.03;7.20;;;3.80;99.90;;;;;;5017358;28;20488;-73
2022/11/17 04:49:00;;;;;;;9.23;6.67;;;3.90;99.90;;;;;;5030960;28;21158;-73
2022/11/17 04:51:27;;;;;;;9.10;7.40;;;3.90;99.90;;;;;;5014869;28;20430;-74
2022/11/17 04:53:53;;;;;;;8.23;7.20;;;3.90;99.90;;;;;;5032062;28;20453;-74
2022/11/17 04:56:20;;;;;;;11.10;7.50;;;3.80;99.90;;;;;;5032197;28;20427;-72
2022/11/17 04:58:46;;;;;;;9.50;7.60;;;3.80;99.90;;;;;;5033638;28;20259;-73
2022/11/17 05:01:12;;;;;;;11.60;7.33;;;3.80;99.90;;;;;;5023138;28;20458;-71
2022/11/17 05:03:56;;;;;;;8.60;6.83;;;3.80;99.90;;;;;;5011305;28;20431;-72
2022/11/17 05:06:27;;;;;;;8.50;7.70;;;3.80;99.90;;;;;;5027565;28;20186;-72
2022/11/17 05:08:54;;;;;;;11.90;8.10;;;3.90;99.90;;;;;;5032401;28;20504;-71
2022/11/17 05:14:07;;;;;;;9.07;7.03;;;3.90;99.90;;;;;;5031937;28;20999;-71
2022/11/17 05:19:22;;;;;;;9.20;6.67;;;3.90;99.90;;;;;;5025722;28;20779;-72
2022/11/17 05:21:48;;;;;;;11.90;8.60;;;3.90;99.90;;;;;;5030553;28;20394;-72
2022/11/17 05:24:17;;;;;;;11.60;8.43;;;3.90;99.90;;;;;;5024206;28;20548;-72
2022/11/17 05:26:44;;;;;;;8.87;7.80;;;3.90;99.90;;;;;;5010845;28;20469;-74
2022/11/17 05:29:12;;;;;;;10.20;8.27;;;3.90;99.90;;;;;;5018760;28;20977;-72
2022/11/17 05:31:37;;;;;;;7.30;6.60;;;3.90;99.90;;;;;;5029813;28;20402;-72
2022/11/17 05:34:05;;;;;;;11.13;8.03;;;4.00;99.90;;;;;;5032907;28;20472;-72
2022/11/17 05:36:33;;;;;;;9.70;7.13;;;4.00;99.90;;;;;;5033570;28;20247;-74
2022/11/17 05:38:59;;;;;;;10.90;8.53;;;4.00;99.90;;;;;;5032275;28;20418;-73
2022/11/17 05:41:26;;;;;;;10.53;7.97;;;4.00;99.90;;;;;;5032429;28;20409;-72
2022/11/17 05:43:52;;;;;;;9.93;7.23;;;4.00;99.90;;;;;;5009298;28;20511;-72
2022/11/17 05:46:18;;;;;;;10.50;7.63;;;4.00;99.90;;;;;;5010894;28;20945;-74
2022/11/17 05:48:45;;;;;;;9.77;8.03;;;4.00;99.90;;;;;;5011683;28;20179;-71
2022/11/17 05:51:11;;;;;;;13.43;8.73;;;4.00;99.90;;;;;;5013001;28;20408;-72
2022/11/17 05:53:37;;;;;;;12.00;8.53;;;4.00;99.90;;;;;;5012264;28;20465;-72
2022/11/17 05:56:13;;;;;;;9.00;7.80;;;4.00;99.90;;;;;;5011868;28;20897;-72
2022/11/17 05:58:42;;;;;;;12.37;8.50;;;4.00;99.90;;;;;;5012494;28;20395;-73
2022/11/17 06:01:11;;;;;;;9.33;7.80;;;4.00;99.90;;;;;;5010156;28;20788;-72
2022/11/17 06:03:41;;;;;;;12.37;8.80;;;4.00;99.90;;;;;;5010669;28;20904;-72
2022/11/17 06:06:08;;;;;;;11.77;9.77;;;4.10;99.90;;;;;;5010351;28;20477;-69
2022/11/17 06:08:34;;;;;;;10.00;7.80;;;4.10;99.90;;;;;;5026113;28;20437;-71
2022/11/17 06:11:00;;;;;;;16.00;8.70;;;4.10;99.90;;;;;;5032376;28;20406;-70
2022/11/17 06:13:27;;;;;;;9.17;7.53;;;4.10;99.90;;;;;;5032346;28;20550;-70
2022/11/17 06:15:55;;;;;;;13.90;10.07;;;4.10;99.90;;;;;;5032470;28;20630;-72
2022/11/17 06:18:27;;;;;;;10.23;8.27;;;4.10;99.90;;;;;;5033347;28;20774;-70
2022/11/17 06:20:53;;;;;;;10.93;8.20;;;4.10;99.90;;;;;;5010586;28;21058;-71
2022/11/17 06:23:21;;;;;;;10.60;9.50;;;4.10;99.90;;;;;;5015939;28;20478;-69
2022/11/17 06:25:47;;;;;;;10.13;7.43;;;4.20;99.90;;;;;;5032760;28;20420;-70
2022/11/17 06:28:18;;;;;;;12.07;8.13;;;4.20;99.90;;;;;;5032288;28;20505;-73
2022/11/17 06:30:43;;;;;;;11.07;8.87;;;4.20;99.90;;;;;;5013877;28;20426;-66
2022/11/17 06:33:12;;;;;;;11.40;9.13;;;4.20;99.90;;;;;;5031096;28;20583;-73
2022/11/17 06:35:39;;;;;;;10.57;8.53;;;4.30;99.90;;;;;;5031289;28;20245;-70
2022/11/17 06:38:04;;;;;;;12.33;8.17;;;4.20;99.90;;;;;;5028701;28;20914;-70
2022/11/17 06:40:30;;;;;;;9.17;7.60;;;4.30;99.90;;;;;;5022578;28;20430;-70
2022/11/17 06:43:11;;;;;;;12.83;9.87;;;4.30;99.90;;;;;;5023339;28;20182;-70
2022/11/17 06:45:44;;;;;;;13.43;9.07;;;4.30;99.90;;;;;;5028801;28;20178;-74
2022/11/17 06:48:13;;;;;;;11.90;8.87;;;4.40;99.90;;;;;;5028957;28;20410;-68
2022/11/17 06:50:39;;;;;;;59.43;25.97;;;4.40;99.90;;;;;;5032008;28;20430;-68
2022/11/17 06:53:08;;;;;;;87.07;39.03;;;5.00;99.90;;;;;;5033414;28;20468;-67
2022/11/17 06:55:35;;;;;;;106.13;43.23;;;5.20;99.90;;;;;;5022993;28;20176;-70
2022/11/17 06:58:05;;;;;;;53.07;27.13;;;5.60;99.90;;;;;;5013565;28;20407;-69
2022/11/17 07:00:31;;;;;;;53.27;29.13;;;5.80;99.90;;;;;;5015085;28;20426;-68
2022/11/17 07:03:08;;;;;;;64.10;32.40;;;6.00;99.90;;;;;;5014209;28;20473;-71
2022/11/17 07:05:36;;;;;;;75.77;30.50;;;6.10;99.90;;;;;;5013068;28;20826;-72
2022/11/17 07:08:04;;;;;;;51.80;23.97;;;6.10;99.90;;;;;;5013391;28;20411;-68
2022/11/17 07:10:33;;;;;;;27.30;16.67;;;6.40;99.90;;;;;;5014683;28;20472;-69
2022/11/17 07:12:59;;;;;;;27.23;13.20;;;6.20;99.90;;;;;;5026942;28;20457;-69
2022/11/17 07:15:26;;;;;;;16.60;11.40;;;6.10;99.90;;;;;;5034201;28;20394;-66
2022/11/17 07:17:51;;;;;;;20.63;14.33;;;6.20;99.90;;;;;;5034791;28;20517;-65
2022/11/17 07:20:18;;;;;;;15.73;10.40;;;6.20;99.90;;;;;;5034933;28;20430;-68
2022/11/17 07:22:44;;;;;;;10.90;7.53;;;6.10;99.90;;;;;;5014383;28;20184;-70
2022/11/17 07:25:11;;;;;;;11.73;8.27;;;6.20;99.90;;;;;;5011874;28;20499;-69
2022/11/17 07:27:37;;;;;;;11.43;8.73;;;5.70;99.90;;;;;;5013588;28;20782;-69
2022/11/17 07:30:05;;;;;;;8.93;6.63;;;5.30;99.90;;;;;;5014953;28;20417;-69
2022/11/17 07:32:34;;;;;;;8.17;7.37;;;5.10;99.90;;;;;;5015315;28;20968;-69
2022/11/17 07:35:00;;;;;;;8.90;7.90;;;5.00;99.90;;;;;;5015010;28;20431;-70
2022/11/17 07:37:30;;;;;;;8.80;7.03;;;5.00;99.90;;;;;;5015310;28;20523;-69
2022/11/17 07:39:56;;;;;;;8.43;7.50;;;4.90;99.90;;;;;;5032916;28;21000;-71
2022/11/17 07:42:21;;;;;;;8.97;6.93;;;4.90;99.90;;;;;;5033364;28;20445;-70
2022/11/17 07:44:47;;;;;;;10.60;7.63;;;4.80;99.90;;;;;;5034098;28;20871;-69
2022/11/17 07:47:13;;;;;;;10.33;7.57;;;4.80;99.90;;;;;;5034254;28;20606;-70
2022/11/17 07:49:38;;;;;;;10.17;7.97;;;4.80;99.90;;;;;;5034358;28;20180;-69
2022/11/17 07:52:04;;;;;;;8.73;6.03;;;4.80;99.90;;;;;;5024325;28;20635;-67
2022/11/17 07:54:29;;;;;;;10.33;7.10;;;4.70;99.90;;;;;;5011959;28;20212;-71
2022/11/17 07:56:55;;;;;;;8.30;7.00;;;4.80;99.90;;;;;;5012772;28;20232;-70
2022/11/17 07:59:21;;;;;;;8.10;6.80;;;4.70;99.90;;;;;;5021253;28;20187;-69
2022/11/17 08:01:46;;;;;;;8.77;7.50;;;4.70;99.90;;;;;;5016756;28;20673;-71
2022/11/17 08:04:12;;;;;;;9.20;6.77;;;4.80;99.90;;;;;;5034075;28;20192;-70
2022/11/17 08:06:38;;;;;;;8.90;6.33;;;4.80;99.90;;;;;;5033914;28;20176;-70
2022/11/17 08:09:05;;;;;;;7.00;6.27;;;4.80;99.90;;;;;;5034241;28;20503;-70
2022/11/17 08:11:30;;;;;;;13.60;8.27;;;4.80;99.90;;;;;;5037015;28;20191;-70
2022/11/17 08:13:57;;;;;;;11.93;7.53;;;4.80;99.90;;;;;;5031598;28;20457;-71
2022/11/17 08:16:26;;;;;;;10.10;7.00;;;4.90;99.90;;;;;;5041768;28;20180;-70
2022/11/17 08:18:52;;;;;;;7.63;6.83;;;4.90;99.90;;;;;;5041539;28;20877;-70
2022/11/17 08:21:17;;;;;;;8.30;6.50;;;4.90;99.90;;;;;;5038766;28;20456;-71
2022/11/17 08:23:43;;;;;;;11.10;7.20;;;4.90;99.90;;;;;;5036717;28;20985;-71
2022/11/17 08:26:10;;;;;;;7.83;5.90;;;4.90;99.90;;;;;;5031976;28;20221;-70
2022/11/17 08:28:36;;;;;;;10.27;6.70;;;4.90;99.90;;;;;;5028208;28;20184;-70
2022/11/17 08:31:03;;;;;;;8.70;7.83;;;4.90;99.90;;;;;;5013508;28;20797;-71
2022/11/17 08:33:29;;;;;;;8.90;7.37;;;4.90;99.90;;;;;;5013060;28;20542;-69
2022/11/17 08:36:01;;;;;;;10.80;7.43;;;5.00;99.90;;;;;;5011592;28;20511;-70
2022/11/17 08:38:28;;;;;;;8.87;7.17;;;5.00;99.90;;;;;;5014624;28;20418;-69
2022/11/17 08:41:03;;;;;;;8.50;6.67;;;4.90;99.90;;;;;;5030147;28;20446;-70
2022/11/17 08:43:29;;;;;;;7.93;6.50;;;5.00;99.90;;;;;;5031857;28;20476;-69
2022/11/17 08:45:55;;;;;;;12.60;6.63;;;5.00;99.90;;;;;;5028862;28;20771;-71
2022/11/17 08:48:20;;;;;;;9.43;6.80;;;5.00;99.90;;;;;;5001328;28;20182;-71
2022/11/17 08:50:46;;;;;;;11.20;8.17;;;5.00;99.90;;;;;;5033639;28;20666;-71
2022/11/17 08:53:13;;;;;;;14.73;8.50;;;5.00;99.90;;;;;;5020575;28;20242;-71
2022/11/17 08:55:39;;;;;;;10.80;8.03;;;5.00;99.90;;;;;;5027146;28;20509;-72
2022/11/17 08:58:05;;;;;;;10.57;9.03;;;5.00;99.90;;;;;;5023597;28;20489;-72
2022/11/17 09:00:30;;;;;;;11.67;8.27;;;5.00;99.90;;;;;;5028990;28;20314;-69
2022/11/17 09:02:56;;;;;;;13.57;7.40;;;5.00;99.90;;;;;;5009148;28;20551;-70
2022/11/17 09:05:23;;;;;;;10.60;7.13;;;5.00;99.90;;;;;;5031087;28;20179;-71
2022/11/17 09:07:49;;;;;;;9.97;7.10;;;4.90;99.90;;;;;;5027050;28;20190;-71
2022/11/17 09:10:15;;;;;;;12.57;8.57;;;4.90;99.90;;;;;;5031313;28;20402;-71
2022/11/17 09:12:40;;;;;;;8.60;6.53;;;5.00;99.90;;;;;;5030966;28;20203;-71
2022/11/17 09:15:07;;;;;;;11.90;8.77;;;5.00;99.90;;;;;;5030925;28;20195;-70
2022/11/17 09:17:32;;;;;;;9.90;7.33;;;4.90;99.90;;;;;;5031779;28;20182;-70
2022/11/17 09:19:58;;;;;;;9.10;5.87;;;4.90;99.90;;;;;;5025898;28;20427;-70
2022/11/17 09:22:23;;;;;;;9.87;7.50;;;5.00;99.90;;;;;;5026348;28;20280;-70
2022/11/17 09:24:49;;;;;;;10.03;6.30;;;5.00;99.90;;;;;;5031427;28;20203;-70
2022/11/17 09:27:15;;;;;;;12.53;8.80;;;5.00;99.90;;;;;;5030873;28;20233;-70
2022/11/17 09:29:40;;;;;;;12.40;7.20;;;5.00;99.90;;;;;;5031648;28;20693;-71
2022/11/17 09:32:06;;;;;;;10.43;7.33;;;4.90;99.90;;;;;;5031847;28;20241;-71
2022/11/17 09:34:31;;;;;;;13.40;8.50;;;5.00;99.90;;;;;;5031882;28;20722;-71
2022/11/17 09:36:57;;;;;;;12.73;7.50;;;5.00;99.90;;;;;;5031578;28;20254;-71
2022/11/17 09:39:22;;;;;;;10.33;8.70;;;5.00;99.90;;;;;;5031676;28;20653;-71
2022/11/17 09:41:51;;;;;;;16.43;8.33;;;5.00;99.90;;;;;;5032409;28;20167;-71
2022/11/17 09:44:26;;;;;;;13.30;9.10;;;5.00;99.90;;;;;;5031467;28;20569;-70
2022/11/17 09:47:19;;;;;;;10.97;8.07;;;5.00;99.90;;;;;;5026929;28;20437;-70
2022/11/17 09:50:12;;;;;;;10.57;7.27;;;5.00;99.90;;;;;;5031795;28;20967;-70
2022/11/17 09:53:05;;;;;;;12.67;7.77;;;5.00;99.90;;;;;;5045642;28;20544;-70
2022/11/17 09:55:35;;;;;;;11.60;7.43;;;5.00;99.90;;;;;;5010972;28;20399;-72
2022/11/17 09:58:12;;;;;;;13.00;8.40;;;5.00;99.90;;;;;;5025931;28;20555;-71
2022/11/17 10:00:41;;;;;;;10.20;7.67;;;5.00;99.90;;;;;;5031099;28;20713;-70
2022/11/17 10:03:20;;;;;;;10.10;7.20;;;5.00;99.90;;;;;;5031212;28;20430;-70
2022/11/17 10:05:47;;;;;;;12.67;9.50;;;5.00;99.90;;;;;;5034845;28;20475;-70
2022/11/17 10:08:19;;;;;;;11.93;8.60;;;5.00;99.90;;;;;;5050564;28;20479;-71
2022/11/17 10:10:50;;;;;;;12.67;7.57;;;5.00;99.90;;;;;;5038157;28;20406;-70
2022/11/17 10:13:29;;;;;;;9.67;7.80;;;5.10;99.90;;;;;;5028282;28;20469;-69
2022/11/17 10:16:10;;;;;;;11.63;8.70;;;5.10;99.90;;;;;;5010613;28;20407;-71
2022/11/17 10:18:37;;;;;;;9.40;6.60;;;5.00;99.90;;;;;;5024795;28;20422;-68
2022/11/17 10:21:07;;;;;;;12.13;7.83;;;5.10;99.90;;;;;;5019811;28;20532;-69
2022/11/17 10:23:43;;;;;;;9.80;6.50;;;5.10;99.90;;;;;;5010950;28;21010;-69
2022/11/17 10:26:12;;;;;;;9.40;6.97;;;5.10;99.90;;;;;;5028388;28;20441;-71
2022/11/17 10:28:38;;;;;;;11.63;7.43;;;5.20;99.90;;;;;;5015560;28;20678;-70
2022/11/17 10:31:15;;;;;;;9.90;8.17;;;5.20;99.90;;;;;;5008185;28;20411;-71
2022/11/17 10:33:49;;;;;;;10.50;7.53;;;5.20;99.90;;;;;;5010782;28;20229;-70
2022/11/17 10:36:30;;;;;;;12.33;7.93;;;5.20;99.90;;;;;;5021005;28;20568;-70
2022/11/17 10:38:57;;;;;;;13.20;9.13;;;5.20;99.90;;;;;;5008620;28;20430;-70
2022/11/17 10:41:26;;;;;;;11.70;8.47;;;5.20;99.90;;;;;;5030295;28;20924;-71
2022/11/17 10:44:19;;;;;;;13.03;8.13;;;5.20;99.90;;;;;;5002888;28;20443;-72
2022/11/17 10:47:06;;;;;;;14.83;8.30;;;5.20;99.90;;;;;;5018972;28;21103;-71
2022/11/17 10:49:39;;;;;;;11.03;7.50;;;5.20;99.90;;;;;;5029564;28;20429;-71
2022/11/17 10:52:17;;;;;;;10.97;7.10;;;5.20;99.90;;;;;;5030971;28;20414;-71
2022/11/17 10:54:42;;;;;;;17.63;7.27;;;5.20;99.90;;;;;;5030278;28;20906;-71
2022/11/17 10:57:16;;;;;;;10.80;7.30;;;5.20;99.90;;;;;;5030988;28;20452;-70
2022/11/17 10:59:48;;;;;;;11.47;8.03;;;5.30;99.90;;;;;;5031429;28;20401;-69
2022/11/17 11:02:33;;;;;;;11.63;7.90;;;5.30;99.90;;;;;;5034709;28;20802;-72
2022/11/17 11:05:12;;;;;;;10.60;7.20;;;5.20;99.90;;;;;;5021463;28;20442;-71
2022/11/17 11:07:38;;;;;;;12.80;7.83;;;5.20;99.90;;;;;;5009789;28;20427;-71
2022/11/17 11:10:07;;;;;;;9.97;7.20;;;5.20;99.90;;;;;;5012089;28;20761;-68
2022/11/17 11:12:53;;;;;;;10.17;7.73;;;5.20;99.90;;;;;;5009311;28;20447;-70
2022/11/17 11:15:21;;;;;;;14.00;7.90;;;5.30;99.90;;;;;;5003966;28;20469;-70
2022/11/17 11:17:47;;;;;;;10.20;7.10;;;5.30;99.90;;;;;;5004130;28;20497;-70
2022/11/17 11:20:19;;;;;;;10.80;7.20;;;5.30;99.90;;;;;;5014679;28;20513;-70
2022/11/17 11:22:57;;;;;;;7.60;6.50;;;5.30;99.90;;;;;;5023135;28;20852;-70
2022/11/17 11:25:39;;;;;;;10.73;7.30;;;5.30;99.90;;;;;;5021180;28;20417;-70
2022/11/17 11:28:08;;;;;;;11.10;6.33;;;5.30;99.90;;;;;;5023705;28;20410;-71
2022/11/17 11:30:46;;;;;;;12.20;7.60;;;5.30;99.90;;;;;;5022169;28;20426;-70
2022/11/17 11:33:25;;;;;;;10.30;7.50;;;5.30;99.90;;;;;;5013195;28;20466;-70
2022/11/17 11:36:35;;;;;;;12.90;7.60;;;5.30;99.90;;;;;;5023288;28;20401;-69
2022/11/17 11:39:22;;;;;;;8.90;6.30;;;5.30;99.90;;;;;;5035974;28;21127;-71
2022/11/17 11:41:53;;;;;;;11.03;8.30;;;5.30;99.90;;;;;;5044545;28;20422;-71
2022/11/17 11:45:02;;;;;;;9.33;7.03;;;5.30;99.90;;;;;;5033970;28;20511;-72
2022/11/17 11:47:31;;;;;;;9.57;8.43;;;5.30;99.90;;;;;;4997215;28;21248;-70
2022/11/17 11:50:10;;;;;;;9.00;6.30;;;5.30;99.90;;;;;;5030335;28;20887;-71
2022/11/17 11:52:41;;;;;;;10.57;6.73;;;5.30;99.90;;;;;;5038757;28;20456;-70
2022/11/17 11:55:30;;;;;;;8.33;5.90;;;5.30;99.90;;;;;;5034255;28;20430;-71
2022/11/17 11:58:18;;;;;;;9.63;7.30;;;5.30;99.90;;;;;;5020770;28;20430;-72
2022/11/17 12:00:45;;;;;;;10.13;5.60;;;5.30;99.90;;;;;;5013957;28;20418;-70
2022/11/17 12:03:34;;;;;;;9.27;6.43;;;5.30;99.90;;;;;;5025193;28;20469;-70
2022/11/17 12:06:40;;;;;;;8.37;6.00;;;5.30;99.90;;;;;;5022437;28;20415;-71
2022/11/17 12:09:15;;;;;;;10.50;6.87;;;5.30;99.90;;;;;;5028048;28;20413;-69
2022/11/17 12:11:59;;;;;;;10.67;6.57;;;5.40;99.90;;;;;;5015491;28;20433;-69
2022/11/17 12:14:30;;;;;;;9.27;6.83;;;5.30;99.90;;;;;;5022461;28;20515;-70
2022/11/17 12:17:24;;;;;;;9.80;7.60;;;5.30;99.90;;;;;;5018602;28;20418;-71
2022/11/17 12:20:02;;;;;;;8.30;7.50;;;5.40;99.90;;;;;;5014072;28;20441;-72
2022/11/17 12:22:33;;;;;;;10.23;7.30;;;5.40;99.90;;;;;;5015281;28;20406;-69
2022/11/17 12:25:13;;;;;;;9.60;6.40;;;5.40;99.90;;;;;;5019136;28;20453;-69
2022/11/17 12:27:40;;;;;;;7.07;5.47;;;5.40;99.90;;;;;;5019983;28;20853;-71
2022/11/17 12:30:29;;;;;;;11.47;6.57;;;5.40;99.90;;;;;;5008024;28;20817;-71
2022/11/17 12:32:55;;;;;;;10.00;6.83;;;5.40;99.90;;;;;;5013124;28;20451;-70
2022/11/17 12:35:40;;;;;;;10.47;6.80;;;5.30;99.90;;;;;;5005835;28;20917;-70
2022/11/17 12:38:18;;;;;;;10.20;8.00;;;5.40;99.90;;;;;;5022498;28;20406;-71
2022/11/17 12:40:46;;;;;;;10.37;7.60;;;5.40;99.90;;;;;;5029896;28;20782;-70
2022/11/17 12:43:15;;;;;;;11.13;8.40;;;5.40;99.90;;;;;;5043168;28;21264;-70
2022/11/17 12:46:11;;;;;;;10.57;7.60;;;5.40;99.90;;;;;;5041249;28;20906;-71
2022/11/17 12:48:39;;;;;;;12.30;9.53;;;5.40;99.90;;;;;;5012031;28;20488;-70
2022/11/17 12:51:26;;;;;;;9.93;7.70;;;5.30;99.90;;;;;;5020581;28;20437;-71
2022/11/17 12:54:00;;;;;;;9.73;6.33;;;5.40;99.90;;;;;;5015518;28;20528;-70
2022/11/17 12:56:40;;;;;;;8.83;6.70;;;5.30;99.90;;;;;;5022334;28;20472;-71
2022/11/17 12:59:28;;;;;;;7.77;6.97;;;5.30;99.90;;;;;;5003269;28;20407;-70
2022/11/17 13:02:21;;;;;;;10.90;8.13;;;5.30;99.90;;;;;;5020760;28;20792;-71
2022/11/17 13:04:54;;;;;;;12.77;8.07;;;5.40;99.90;;;;;;5020660;28;20435;-71
2022/11/17 13:07:24;;;;;;;11.00;8.37;;;5.30;99.90;;;;;;5020721;28;20900;-71
2022/11/17 13:09:52;;;;;;;11.73;7.20;;;5.30;99.90;;;;;;5020539;28;20758;-71
2022/11/17 13:12:32;;;;;;;12.00;8.40;;;5.30;99.90;;;;;;5002865;28;20898;-70
2022/11/17 13:15:04;;;;;;;9.77;7.70;;;5.30;99.90;;;;;;5002345;28;20442;-70
2022/11/17 13:17:39;;;;;;;9.10;7.60;;;5.40;99.90;;;;;;5020260;28;20505;-70
2022/11/17 13:20:26;;;;;;;15.50;8.40;;;5.30;99.90;;;;;;5020296;28;20813;-70
2022/11/17 13:23:06;;;;;;;10.50;6.13;;;5.30;99.90;;;;;;5015975;28;20423;-71
2022/11/17 13:31:29;;;;;;;9.97;7.70;;;5.30;99.90;;;;;;5026679;22;20521;-66
2022/11/17 13:34:15;;;;;;;11.60;6.70;;;5.20;99.90;;;;;;4996853;28;20470;-66
2022/11/17 13:36:54;;;;;;;11.40;7.60;;;5.20;99.90;;;;;;4983179;28;20176;-65
2022/11/17 13:39:20;;;;;;;10.03;6.27;;;5.20;99.90;;;;;;5001327;28;20427;-64
2022/11/17 13:41:47;;;;;;;9.17;6.43;;;5.20;99.90;;;;;;5002386;28;21058;-66
2022/11/17 13:44:16;;;;;;;8.60;7.60;;;5.20;99.90;;;;;;4999927;28;20427;-65
2022/11/17 13:46:42;;;;;;;9.57;7.00;;;5.20;99.90;;;;;;5000511;28;20427;-67
2022/11/17 13:49:33;;;;;;;7.20;6.07;;;5.20;99.90;;;;;;4993978;28;20876;-66